Turners Station, Kentucky
Current Conditions -  °F | °C
As of 9:53 PM on Monday 20 Oct 2014 (Local Time) from KFFT Reporting Station
Broken Clouds Broken Clouds  
Wind Chill: 58°   Ceiling: 4300
Heat Index: 58°   Visibility: 10mi
Dew Point: 49°   Wind: 6mph
Humidity: 72%   Direction: 210°SSW
Pressure: 29.93"   Gusts: NA
Location:  38.56°N, 85.17°W
Report Text: KFFT 210153Z AUTO 21005KT 10SM BKN043 BKN090 14/09 A2993 RMK AO2 LTG DSNT SW AND W SLP133 T01440094
Loading
Personal Weather Stations






























Interactive Weather Map
Tropical Storm Tracking
New forecast layout! Learn more

10-Day Weather Forecast

Advertisements
Track Severe Weather on mobile